createdAt,value
2018-07-03T00:00:36.777Z,101534.92
2018-07-03T00:01:42.189Z,101538.71
2018-07-03T00:02:47.593Z,101535.67
2018-07-03T00:03:52.997Z,101538.89
2018-07-03T00:04:58.401Z,101541.62
2018-07-03T00:06:03.816Z,101536.39
2018-07-03T00:07:09.218Z,101539
2018-07-03T00:08:14.621Z,101540.1
2018-07-03T00:09:20.026Z,101541.87
2018-07-03T00:10:25.434Z,101542.11
2018-07-03T00:11:30.845Z,101538.35
2018-07-03T00:12:36.248Z,101540.79
2018-07-03T00:13:41.654Z,101538.76
2018-07-03T00:14:47.056Z,101542.12
2018-07-03T00:15:52.458Z,101535.12
2018-07-03T00:16:57.870Z,101538.96
2018-07-03T00:18:03.280Z,101540.1
2018-07-03T00:19:08.683Z,101541.4
2018-07-03T00:20:14.088Z,101541.5
2018-07-03T00:21:19.503Z,101542.12
2018-07-03T00:22:24.906Z,101539.85
2018-07-03T00:23:30.312Z,101540.82
2018-07-03T00:24:35.717Z,101538.7
2018-07-03T00:25:41.123Z,101534.39
2018-07-03T00:26:47.530Z,101530.62
2018-07-03T00:27:52.930Z,101531.85
2018-07-03T00:28:58.333Z,101528.2
2018-07-03T00:30:03.740Z,101527.32
2018-07-03T00:31:09.143Z,101531.9
2018-07-03T00:32:14.558Z,101530.28
2018-07-03T00:33:21.947Z,101530.75
2018-07-03T00:34:27.346Z,101531.22
2018-07-03T00:35:32.750Z,101536.57
2018-07-03T00:36:38.166Z,101529.15
2018-07-03T00:37:43.568Z,101529.82
2018-07-03T00:38:48.969Z,101522.64
2018-07-03T00:39:54.372Z,101521.57
2018-07-03T00:40:59.780Z,101520.95
2018-07-03T00:42:05.187Z,101520.39
2018-07-03T00:43:10.592Z,101525.28
2018-07-03T00:44:15.997Z,101516.31
2018-07-03T00:45:21.402Z,101521.35
2018-07-03T00:46:26.803Z,101518.99
2018-07-03T00:47:32.217Z,101522.78
2018-07-03T00:48:37.617Z,101520.21
2018-07-03T00:49:43.023Z,101522.41
2018-07-03T00:50:48.424Z,101521.32
2018-07-03T00:51:53.841Z,101517.67
2018-07-03T00:52:59.247Z,101519.08
2018-07-03T00:54:04.646Z,101512.02
2018-07-03T00:55:10.052Z,101517.2
2018-07-03T00:56:16.445Z,101517.6
2018-07-03T00:57:21.859Z,101516.1
2018-07-03T00:58:27.264Z,101520.46
2018-07-03T00:59:32.668Z,101518.6
2018-07-03T01:00:38.073Z,101521.67
2018-07-03T01:01:43.479Z,101520.56
2018-07-03T01:02:48.896Z,101524.5
2018-07-03T01:03:54.296Z,101525.23
2018-07-03T01:04:59.720Z,101524.67
2018-07-03T01:06:05.122Z,101526.9
2018-07-03T01:07:10.525Z,101520.25
2018-07-03T01:08:15.940Z,101522.17
2018-07-03T01:09:21.343Z,101519.62
2018-07-03T01:10:26.750Z,101520.28
2018-07-03T01:11:32.153Z,101522.56
2018-07-03T01:12:37.587Z,101526.09
2018-07-03T01:13:42.990Z,101521
2018-07-03T01:14:48.393Z,101524.32
2018-07-03T01:15:53.797Z,101527.83
2018-07-03T01:16:59.200Z,101527.29
2018-07-03T01:18:04.616Z,101530.54
2018-07-03T01:19:10.048Z,101528.79
2018-07-03T01:20:15.448Z,101527.17
2018-07-03T01:21:20.851Z,101527.31
2018-07-03T01:22:26.255Z,101532.04
2018-07-03T01:23:31.669Z,101527.6
2018-07-03T01:24:37.078Z,101530.78
2018-07-03T01:25:42.478Z,101525.41
2018-07-03T01:26:47.877Z,101523.09
2018-07-03T01:27:53.290Z,101524.09
2018-07-03T01:28:58.693Z,101523.29
2018-07-03T01:30:04.096Z,101524.21
2018-07-03T01:31:09.495Z,101523.39
2018-07-03T01:32:14.899Z,101521.84
2018-07-03T01:33:20.312Z,101524.2
2018-07-03T01:34:25.720Z,101525.67
2018-07-03T01:35:31.127Z,101523.89
2018-07-03T01:36:36.525Z,101522.93
2018-07-03T01:37:41.936Z,101520.53
2018-07-03T01:38:47.343Z,101522.47
2018-07-03T01:39:52.747Z,101523.21
2018-07-03T01:40:58.152Z,101522.64
2018-07-03T01:42:03.554Z,101519.4
2018-07-03T01:43:16.517Z,101520.14
2018-07-03T01:44:21.918Z,101519.78
2018-07-03T01:45:27.325Z,101517.67
2018-07-03T01:46:33.720Z,101516.73
2018-07-03T01:47:39.122Z,101517.78
2018-07-03T01:48:44.533Z,101519.85
2018-07-03T01:49:49.938Z,101516.12
2018-07-03T01:50:55.343Z,101520.62
2018-07-03T01:52:00.741Z,101523.2
2018-07-03T01:53:06.142Z,101518.03
2018-07-03T01:54:11.559Z,101522.14
2018-07-03T01:55:16.957Z,101519.21
2018-07-03T01:56:23.353Z,101519.14
2018-07-03T01:57:28.754Z,101522.13
2018-07-03T01:58:34.159Z,101515.9
2018-07-03T01:59:39.571Z,101515.39
2018-07-03T02:00:44.971Z,101514.39
2018-07-03T02:01:50.377Z,101516.06
2018-07-03T02:02:55.775Z,101513.34
2018-07-03T02:04:01.188Z,101514.31
2018-07-03T02:05:06.595Z,101515.4
2018-07-03T02:06:11.999Z,101512.28
2018-07-03T02:07:17.399Z,101504.95
2018-07-03T02:08:22.802Z,101506.08
2018-07-03T02:09:28.217Z,101507.05
2018-07-03T02:10:33.617Z,101507.94
2018-07-03T02:11:39.021Z,101509.62
2018-07-03T02:12:44.424Z,101504.69
2018-07-03T02:13:50.820Z,101505.4
2018-07-03T02:14:57.223Z,101502.77
2018-07-03T02:16:02.626Z,101501.7
2018-07-03T02:17:08.036Z,101499.67
2018-07-03T02:18:13.444Z,101495.75
2018-07-03T02:19:18.854Z,101495.12
2018-07-03T02:20:24.259Z,101497.21
2018-07-03T02:21:29.660Z,101496.31
2018-07-03T02:22:35.064Z,101496.78
2018-07-03T02:23:40.463Z,101488.92
2018-07-03T02:24:45.876Z,101491.02
2018-07-03T02:25:51.281Z,101491.08
2018-07-03T02:26:56.681Z,101493.1
2018-07-03T02:28:02.082Z,101490.46
2018-07-03T02:29:07.482Z,101490.55
2018-07-03T02:30:12.897Z,101492.83
2018-07-03T02:31:18.313Z,101493.17
2018-07-03T02:32:23.717Z,101493.86
2018-07-03T02:33:29.120Z,101493.67
2018-07-03T02:34:34.523Z,101491.6
2018-07-03T02:35:39.929Z,101490.46
2018-07-03T02:36:45.345Z,101490.4
2018-07-03T02:37:50.750Z,101488.82
2018-07-03T02:38:56.168Z,101485.17
2018-07-03T02:40:01.555Z,101485.35
2018-07-03T02:41:06.960Z,101486.26
2018-07-03T02:42:12.375Z,101480.59
2018-07-03T02:43:17.780Z,101486.5
2018-07-03T02:44:23.182Z,101484.98
2018-07-03T02:45:28.587Z,101484.75
2018-07-03T02:46:34.202Z,101486.43
2018-07-03T02:47:39.608Z,101484.42
2018-07-03T02:48:45.012Z,101486.54
2018-07-03T02:49:50.414Z,101481.89
2018-07-03T02:50:55.820Z,101481.85
2018-07-03T02:52:01.238Z,101482.96
2018-07-03T02:53:06.643Z,101484.92
2018-07-03T02:54:12.045Z,101482.99
2018-07-03T02:55:17.450Z,101477.89
2018-07-03T02:56:22.850Z,101481.43
2018-07-03T02:57:28.267Z,101478.22
2018-07-03T02:58:33.668Z,101481.83
2018-07-03T02:59:39.071Z,101477.5
2018-07-03T03:00:44.527Z,101480.15
2018-07-03T03:01:49.876Z,101480.46
2018-07-03T03:02:55.288Z,101476.89
2018-07-03T03:04:00.695Z,101477.48
2018-07-03T03:05:06.100Z,101476.17
2018-07-03T03:06:12.496Z,101476.92
2018-07-03T03:07:17.918Z,101477.31
2018-07-03T03:08:23.319Z,101481.18
2018-07-03T03:09:28.727Z,101473.45
2018-07-03T03:10:35.121Z,101476.75
2018-07-03T03:11:40.527Z,101474.06
2018-07-03T03:12:45.936Z,101475.29
2018-07-03T03:13:51.338Z,101478.37
2018-07-03T03:14:56.757Z,101479.22
2018-07-03T03:16:02.161Z,101480.05
2018-07-03T03:17:07.570Z,101479.67
2018-07-03T03:18:13.980Z,101482.13
2018-07-03T03:19:19.383Z,101479.82
2018-07-03T03:20:24.787Z,101476.76
2018-07-03T03:21:30.189Z,101473.57
2018-07-03T03:22:35.635Z,101475.14
2018-07-03T03:23:42.015Z,101477.45
2018-07-03T03:24:47.419Z,101476.84
2018-07-03T03:25:52.825Z,101476.71
2018-07-03T03:26:59.221Z,101481.42
2018-07-03T03:28:04.635Z,101480.23
2018-07-03T03:29:10.036Z,101482.21
2018-07-03T03:30:15.447Z,101481.53
2018-07-03T03:31:20.850Z,101477
2018-07-03T03:32:26.255Z,101477.98
2018-07-03T03:33:32.663Z,101473.4
2018-07-03T03:34:38.072Z,101477
2018-07-03T03:35:43.480Z,101478
2018-07-03T03:36:48.880Z,101476.68
2018-07-03T03:37:54.286Z,101475.89
2018-07-03T03:38:59.711Z,101476.52
2018-07-03T03:40:05.118Z,101479.3
2018-07-03T03:41:10.528Z,101475.1
2018-07-03T03:42:15.923Z,101471.92
2018-07-03T03:43:21.340Z,101473.92
2018-07-03T03:44:26.741Z,101470.51
2018-07-03T03:45:32.147Z,101472.03
2018-07-03T03:46:37.553Z,101473.87
2018-07-03T03:47:42.959Z,101469.45
2018-07-03T03:48:48.380Z,101473.31
2018-07-03T03:49:53.779Z,101473.78
2018-07-03T03:50:59.179Z,101477.68
2018-07-03T03:52:04.596Z,101481.23
2018-07-03T03:53:10.000Z,101476.95
2018-07-03T03:54:15.415Z,101479.15
2018-07-03T03:55:20.817Z,101480.03
2018-07-03T03:56:27.215Z,101477.18
2018-07-03T03:57:32.617Z,101473.04
2018-07-03T03:58:38.043Z,101469.17
2018-07-03T03:59:43.448Z,101473.89
2018-07-03T04:00:49.880Z,101472.18
2018-07-03T04:01:55.248Z,101471.03
2018-07-03T04:03:00.654Z,101478.25
2018-07-03T04:04:06.071Z,101478.81
2018-07-03T04:05:11.469Z,101477.39
2018-07-03T04:06:16.883Z,101474.57
2018-07-03T04:07:22.289Z,101473.9
2018-07-03T04:08:27.689Z,101473.67
2018-07-03T04:09:33.105Z,101472.6
2018-07-03T04:10:38.506Z,101474.89
2018-07-03T04:11:43.911Z,101472.92
2018-07-03T04:12:49.314Z,101474.54
2018-07-03T04:13:55.722Z,101477.51
2018-07-03T04:15:01.145Z,101474.76
2018-07-03T04:16:06.552Z,101475.82
2018-07-03T04:17:11.959Z,101477.8
2018-07-03T04:18:17.366Z,101468.71
2018-07-03T04:19:22.781Z,101473.85
2018-07-03T04:20:28.185Z,101475.16
2018-07-03T04:21:33.590Z,101473.81
2018-07-03T04:22:38.997Z,101473.64
2018-07-03T04:23:44.402Z,101475.48
2018-07-03T04:24:49.815Z,101478.28
2018-07-03T04:25:55.220Z,101475.63
2018-07-03T04:27:00.627Z,101475.31
2018-07-03T04:28:06.026Z,101480.57
2018-07-03T04:29:11.451Z,101476.64
2018-07-03T04:30:16.857Z,101471.32
2018-07-03T04:31:22.262Z,101472.67
2018-07-03T04:32:27.665Z,101474.01
2018-07-03T04:33:33.080Z,101469.9
2018-07-03T04:34:38.491Z,101474.17
2018-07-03T04:35:43.891Z,101472.67
2018-07-03T04:36:49.295Z,101474.34
2018-07-03T04:37:54.715Z,101476.65
2018-07-03T04:39:00.118Z,101478.36
2018-07-03T04:40:05.537Z,101482.21
2018-07-03T04:41:10.936Z,101476.67
2018-07-03T04:42:16.337Z,101477.1
2018-07-03T04:43:21.740Z,101473.7
2018-07-03T04:44:27.164Z,101478.85
2018-07-03T04:45:32.569Z,101479.1
2018-07-03T04:46:37.979Z,101475.28
2018-07-03T04:47:44.373Z,101475.41
2018-07-03T04:48:49.777Z,101474.69
2018-07-03T04:49:55.192Z,101470.56
2018-07-03T04:51:00.598Z,101470.32
2018-07-03T04:52:05.999Z,101472.39
2018-07-03T04:53:11.403Z,101472.84
2018-07-03T04:54:16.808Z,101471.73
2018-07-03T04:55:22.225Z,101478.37
2018-07-03T04:56:27.628Z,101476.51
2018-07-03T04:57:34.026Z,101473.1
2018-07-03T04:58:39.423Z,101477.54
2018-07-03T04:59:44.846Z,101477.29
2018-07-03T05:00:50.248Z,101477.06
2018-07-03T05:01:55.650Z,101476.95
2018-07-03T05:03:01.060Z,101484.2
2018-07-03T05:04:06.460Z,101479.37
2018-07-03T05:05:11.874Z,101483.78
2018-07-03T05:06:17.288Z,101482.68
2018-07-03T05:07:22.694Z,101480.42
2018-07-03T05:08:28.099Z,101481.59
2018-07-03T05:09:33.501Z,101488.67
2018-07-03T05:10:38.916Z,101486.76
2018-07-03T05:11:44.318Z,101484.95
2018-07-03T05:12:49.723Z,101493.41
2018-07-03T05:13:55.124Z,101493.56
2018-07-03T05:15:00.540Z,101496.7
2018-07-03T05:16:05.940Z,101499.79
2018-07-03T05:17:11.346Z,101500.85
2018-07-03T05:18:16.751Z,101496.25
2018-07-03T05:19:22.158Z,101495.43
2018-07-03T05:20:27.574Z,101493.23
2018-07-03T05:21:32.979Z,101498.7
2018-07-03T05:22:38.402Z,101502.67
2018-07-03T05:23:43.807Z,101500.79
2018-07-03T05:24:49.218Z,101508.17
2018-07-03T05:25:54.631Z,101506.48
2018-07-03T05:27:00.052Z,101507.2
2018-07-03T05:28:05.457Z,101510.95
2018-07-03T05:29:10.863Z,101509.15
2018-07-03T05:30:16.264Z,101512.56
2018-07-03T05:31:21.760Z,101504.96
2018-07-03T05:32:27.098Z,101506.59
2018-07-03T05:33:33.494Z,101509.45
2018-07-03T05:34:38.897Z,101504.39
2018-07-03T05:35:44.300Z,101509.82
2018-07-03T05:36:49.713Z,101510.08
2018-07-03T05:37:55.120Z,101510.08
2018-07-03T05:39:00.526Z,101506.59
2018-07-03T05:40:05.955Z,101508.1
2018-07-03T05:41:11.372Z,101511.79
2018-07-03T05:42:16.778Z,101511.34
2018-07-03T05:43:22.180Z,101512.32
2018-07-03T05:44:27.583Z,101513.7
2018-07-03T05:45:32.984Z,101514.75
2018-07-03T05:46:38.397Z,101517.23
2018-07-03T05:47:43.799Z,101517.45
2018-07-03T05:48:49.203Z,101517.78
2018-07-03T05:49:54.608Z,101525.58
2018-07-03T05:51:00.015Z,101526.43
2018-07-03T05:52:05.427Z,101525.47
2018-07-03T05:53:10.829Z,101522.73
2018-07-03T05:54:16.235Z,101534.15
2018-07-03T05:55:22.629Z,101535.6
2018-07-03T05:56:28.064Z,101531.78
2018-07-03T05:57:33.452Z,101529.69
2018-07-03T05:58:38.859Z,101529.86
2018-07-03T05:59:44.318Z,101531.21
2018-07-03T06:00:49.725Z,101532.17
2018-07-03T06:01:55.158Z,101532.95
2018-07-03T06:03:00.580Z,101532.46
2018-07-03T06:04:05.988Z,101533.67
2018-07-03T06:05:11.393Z,101529.92
2018-07-03T06:06:17.789Z,101535.01
2018-07-03T06:07:24.193Z,101533.82
2018-07-03T06:08:29.599Z,101535.1
2018-07-03T06:09:35.078Z,101532.46
2018-07-03T06:10:40.404Z,101531.32
2018-07-03T06:11:45.810Z,101526.45
2018-07-03T06:12:52.219Z,101528.96
2018-07-03T06:13:57.620Z,101526.73
2018-07-03T06:15:03.026Z,101526.21
2018-07-03T06:16:08.430Z,101527.42
2018-07-03T06:17:13.833Z,101529.38
2018-07-03T06:18:19.245Z,101525.78
2018-07-03T06:19:24.648Z,101527.59
2018-07-03T06:20:30.055Z,101526.15
2018-07-03T06:21:35.463Z,101531.48
2018-07-03T06:22:41.878Z,101530.6
2018-07-03T06:23:48.262Z,101527.84
2018-07-03T06:24:53.668Z,101530.43
2018-07-03T06:25:59.072Z,101529.82
2018-07-03T06:27:04.478Z,101527.78
2018-07-03T06:28:09.895Z,101526.26
2018-07-03T06:29:15.294Z,101525.5
2018-07-03T06:30:20.694Z,101531.51
2018-07-03T06:31:26.102Z,101526.28
2018-07-03T06:32:31.505Z,101533.48
2018-07-03T06:33:36.917Z,101530.96
2018-07-03T06:34:42.326Z,101534.85
2018-07-03T06:35:48.720Z,101530.7
2018-07-03T06:36:54.136Z,101532.35
2018-07-03T06:38:00.542Z,101533.53
2018-07-03T06:39:05.950Z,101531.85
2018-07-03T06:40:11.353Z,101531.84
2018-07-03T06:41:16.756Z,101526.11
2018-07-03T06:42:22.163Z,101528.5
2018-07-03T06:43:27.577Z,101525.87
2018-07-03T06:44:32.981Z,101523.87
2018-07-03T06:45:38.386Z,101521.51
2018-07-03T06:46:43.789Z,101520.11
2018-07-03T06:47:49.194Z,101518.51
2018-07-03T06:48:54.608Z,101520.28
2018-07-03T06:50:00.014Z,101521.17
2018-07-03T06:51:05.419Z,101524
2018-07-03T06:52:10.823Z,101521.58
2018-07-03T06:53:16.236Z,101525.56
2018-07-03T06:54:21.867Z,101522.46
2018-07-03T06:55:27.078Z,101527.1
2018-07-03T06:56:32.483Z,101530.09
2018-07-03T06:57:37.889Z,101524.2
2018-07-03T06:58:43.300Z,101528.17
2018-07-03T06:59:49.698Z,101522.21
2018-07-03T07:00:55.108Z,101520.84
2018-07-03T07:02:00.511Z,101521.34
2018-07-03T07:03:05.913Z,101519.69
2018-07-03T07:04:11.331Z,101522.8
2018-07-03T07:05:16.735Z,101520.65
2018-07-03T07:06:22.141Z,101520.69
2018-07-03T07:07:28.539Z,101523.92
2018-07-03T07:08:34.035Z,101521.47
2018-07-03T07:09:39.375Z,101516.82
2018-07-03T07:10:44.763Z,101515.03
2018-07-03T07:11:50.162Z,101515.89
2018-07-03T07:12:55.588Z,101516.89
2018-07-03T07:14:01.003Z,101519.28
2018-07-03T07:15:06.436Z,101519.04
2018-07-03T07:16:11.813Z,101516.09
2018-07-03T07:17:17.215Z,101523.95
2018-07-03T07:18:22.614Z,101517.5
2018-07-03T07:19:28.028Z,101520.89
2018-07-03T07:20:33.435Z,101511.94
2018-07-03T07:21:38.839Z,101518.64
2018-07-03T07:22:44.239Z,101516.07
2018-07-03T07:23:49.670Z,101517.56
2018-07-03T07:24:55.082Z,101512.28
2018-07-03T07:26:00.484Z,101515.53
2018-07-03T07:27:05.888Z,101515.68
2018-07-03T07:28:11.291Z,101517.43
2018-07-03T07:29:16.734Z,101520.17
2018-07-03T07:30:22.108Z,101522.54
2018-07-03T07:31:27.513Z,101531
2018-07-03T07:32:32.914Z,101525.84
2018-07-03T07:33:38.321Z,101525.95
2018-07-03T07:34:43.740Z,101526.04
2018-07-03T07:35:49.148Z,101524.43
2018-07-03T07:36:54.549Z,101521.14
2018-07-03T07:37:59.955Z,101523.46
2018-07-03T07:39:05.377Z,101519.4
2018-07-03T07:40:10.784Z,101522.78
2018-07-03T07:41:16.185Z,101518.12
2018-07-03T07:42:21.591Z,101517.51
2018-07-03T07:43:26.993Z,101519.57
2018-07-03T07:44:32.410Z,101517.81
2018-07-03T07:45:37.811Z,101513.4
2018-07-03T07:46:43.217Z,101516.96
2018-07-03T07:47:48.665Z,101514.02
2018-07-03T07:48:54.022Z,101514.87
2018-07-03T07:49:59.434Z,101513.5
2018-07-03T07:51:04.834Z,101508.64
2018-07-03T07:52:10.236Z,101515.93
2018-07-03T07:53:15.648Z,101515.56
2018-07-03T07:54:21.059Z,101507.28
2018-07-03T07:55:26.464Z,101512.39
2018-07-03T07:56:31.869Z,101512.96
2018-07-03T07:57:37.274Z,101514.78
2018-07-03T07:58:43.669Z,101511.51
2018-07-03T07:59:49.084Z,101512.89
2018-07-03T08:00:54.486Z,101512.78
2018-07-03T08:01:59.889Z,101510.76
2018-07-03T08:03:05.294Z,101511.81
2018-07-03T08:04:10.697Z,101511.93
2018-07-03T08:05:16.111Z,101508.18
2018-07-03T08:06:21.514Z,101517.34
2018-07-03T08:07:26.917Z,101512.55
2018-07-03T08:08:32.321Z,101509.45
2018-07-03T08:09:37.736Z,101511.95
2018-07-03T08:10:43.151Z,101511.53
2018-07-03T08:11:48.545Z,101505.82
2018-07-03T08:12:53.948Z,101506.82
2018-07-03T08:13:59.353Z,101504.37
2018-07-03T08:15:04.766Z,101503.64
2018-07-03T08:16:10.169Z,101505.4
2018-07-03T08:17:15.575Z,101501.22
2018-07-03T08:18:20.978Z,101505.12
2018-07-03T08:19:26.396Z,101505.53
2018-07-03T08:20:31.805Z,101508.46
2018-07-03T08:21:37.203Z,101508.44
2018-07-03T08:22:42.608Z,101511.92
2018-07-03T08:23:48.007Z,101512.75
2018-07-03T08:24:53.419Z,101511.1
2018-07-03T08:25:59.824Z,101510.23
2018-07-03T08:27:05.237Z,101512.68
2018-07-03T08:28:10.632Z,101516.84
2018-07-03T08:29:16.038Z,101511.25
2018-07-03T08:30:21.454Z,101511.13
2018-07-03T08:31:26.857Z,101508.73
2018-07-03T08:32:32.271Z,101510.64
2018-07-03T08:33:37.670Z,101507.34
2018-07-03T08:34:43.074Z,101507.67
2018-07-03T08:35:48.487Z,101505.04
2018-07-03T08:36:53.895Z,101505.32
2018-07-03T08:37:59.299Z,101504.27
2018-07-03T08:39:04.704Z,101503.75
2018-07-03T08:40:10.104Z,101504.51
2018-07-03T08:41:15.515Z,101499.98
2018-07-03T08:42:20.920Z,101491.63
2018-07-03T08:43:26.322Z,101501.09
2018-07-03T08:44:31.728Z,101496.41
2018-07-03T08:45:37.153Z,101495.6
2018-07-03T08:46:42.567Z,101494.87
2018-07-03T08:47:47.970Z,101496.73
2018-07-03T08:48:53.376Z,101493.54
2018-07-03T08:49:58.782Z,101495.9
2018-07-03T08:51:04.194Z,101494.59
2018-07-03T08:52:09.599Z,101489.22
2018-07-03T08:53:15.005Z,101487.87
2018-07-03T08:54:20.402Z,101484.9
2018-07-03T08:55:25.807Z,101488.34
2018-07-03T08:56:31.219Z,101485.62
2018-07-03T08:57:36.619Z,101482.6
2018-07-03T08:58:42.022Z,101483.92
2018-07-03T08:59:47.439Z,101487.71
2018-07-03T09:00:52.952Z,101484.44
2018-07-03T09:01:58.271Z,101482.42
2018-07-03T09:03:03.674Z,101482.05
2018-07-03T09:04:09.078Z,101475.59
2018-07-03T09:05:14.485Z,101483.15
2018-07-03T09:06:19.907Z,101487.09
2018-07-03T09:07:25.305Z,101479.59
2018-07-03T09:08:30.711Z,101480.39
2018-07-03T09:09:36.113Z,101482.37
2018-07-03T09:10:42.526Z,101487.25
2018-07-03T09:11:47.938Z,101485.45
2018-07-03T09:12:53.341Z,101481.54
2018-07-03T09:13:58.752Z,101482.65
2018-07-03T09:15:04.156Z,101485.12
2018-07-03T09:16:09.562Z,101480.95
2018-07-03T09:17:14.977Z,101480.79
2018-07-03T09:18:20.381Z,101481.75
2018-07-03T09:19:25.784Z,101479.09
2018-07-03T09:20:31.193Z,101476.9
2018-07-03T09:21:36.607Z,101477.82
2018-07-03T09:22:42.014Z,101476.64
2018-07-03T09:23:47.423Z,101480.76
2018-07-03T09:24:52.856Z,101472.96
2018-07-03T09:25:58.295Z,101474.95
2018-07-03T09:27:03.677Z,101474.36
2018-07-03T09:28:09.085Z,101474.57
2018-07-03T09:29:14.496Z,101471.54
2018-07-03T09:30:19.929Z,101468.76
2018-07-03T09:31:25.300Z,101465.68
2018-07-03T09:32:30.719Z,101468.38
2018-07-03T09:33:36.124Z,101465.95
2018-07-03T09:34:41.533Z,101466.89
2018-07-03T09:35:46.945Z,101464.6
2018-07-03T09:36:52.381Z,101464.25
2018-07-03T09:37:57.824Z,101463.76
2018-07-03T09:39:03.199Z,101464.1
2018-07-03T09:40:08.605Z,101457.79
2018-07-03T09:41:14.007Z,101455.21
2018-07-03T09:42:19.430Z,101458.2
2018-07-03T09:43:24.835Z,101459.75
2018-07-03T09:44:30.239Z,101459.48
2018-07-03T09:45:35.645Z,101453.76
2018-07-03T09:46:41.067Z,101453.42
2018-07-03T09:47:46.461Z,101451.45
2018-07-03T09:48:51.869Z,101454.12
2018-07-03T09:49:57.284Z,101453.39
2018-07-03T09:51:02.688Z,101456.09
2018-07-03T09:52:08.105Z,101456.03
2018-07-03T09:53:13.509Z,101450.93
2018-07-03T09:54:18.915Z,101448.45
2018-07-03T09:55:24.321Z,101445.39
2018-07-03T09:56:29.725Z,101444.89
2018-07-03T09:57:36.136Z,101447.84
2018-07-03T09:58:41.536Z,101448.89
2018-07-03T09:59:46.939Z,101452.55
2018-07-03T10:00:52.344Z,101443.91
2018-07-03T10:01:57.751Z,101446.14
2018-07-03T10:03:03.172Z,101441.07
2018-07-03T10:04:08.596Z,101443.74
2018-07-03T10:05:14.012Z,101444.8
2018-07-03T10:06:19.416Z,101444.53
2018-07-03T10:07:24.841Z,101436.93
2018-07-03T10:08:30.243Z,101440.69
2018-07-03T10:09:35.651Z,101439.16
2018-07-03T10:10:41.064Z,101438.49
2018-07-03T10:11:46.464Z,101439.34
2018-07-03T10:12:51.936Z,101442.89
2018-07-03T10:13:57.277Z,101441.37
2018-07-03T10:15:02.684Z,101438.48
2018-07-03T10:16:08.084Z,101438.14
2018-07-03T10:17:13.489Z,101438.37
2018-07-03T10:18:18.905Z,101438.06
2018-07-03T10:19:24.305Z,101438.65
2018-07-03T10:20:29.711Z,101438.73
2018-07-03T10:21:35.116Z,101435.01
2018-07-03T10:22:40.517Z,101438.6
2018-07-03T10:23:46.953Z,101437.96
2018-07-03T10:24:52.360Z,101434.14
2018-07-03T10:25:57.763Z,101436.46
2018-07-03T10:27:03.179Z,101431.92
2018-07-03T10:28:08.601Z,101435
2018-07-03T10:29:14.004Z,101433.46
2018-07-03T10:30:19.404Z,101425.62
2018-07-03T10:31:24.843Z,101431.69
2018-07-03T10:32:30.214Z,101429.71
2018-07-03T10:33:35.632Z,101430.87
2018-07-03T10:34:41.041Z,101435.68
2018-07-03T10:35:46.456Z,101428.17
2018-07-03T10:36:51.869Z,101432.34
2018-07-03T10:37:57.275Z,101428.24
2018-07-03T10:39:02.682Z,101429.3
2018-07-03T10:40:08.085Z,101427.62
2018-07-03T10:41:13.555Z,101428.57
2018-07-03T10:42:18.895Z,101425.78
2018-07-03T10:43:24.311Z,101431.67
2018-07-03T10:44:29.716Z,101429.07
2018-07-03T10:45:35.121Z,101428.9
2018-07-03T10:46:40.531Z,101428.69
2018-07-03T10:47:45.946Z,101430.32
2018-07-03T10:48:51.393Z,101424.76
2018-07-03T10:49:56.773Z,101425.2
2018-07-03T10:51:02.182Z,101423.15
2018-07-03T10:52:07.590Z,101426.84
2018-07-03T10:53:13.003Z,101423.18
2018-07-03T10:54:18.407Z,101425.15
2018-07-03T10:55:23.809Z,101425.42
2018-07-03T10:56:30.211Z,101421.68
2018-07-03T10:57:35.616Z,101417.37
2018-07-03T10:58:41.027Z,101421.76
2018-07-03T10:59:46.438Z,101424.39
2018-07-03T11:00:52.831Z,101418.28
2018-07-03T11:01:58.232Z,101422
2018-07-03T11:03:03.634Z,101418.53
2018-07-03T11:04:09.058Z,101419.06
2018-07-03T11:05:14.471Z,101415.64
2018-07-03T11:06:19.874Z,101420.73
2018-07-03T11:07:25.284Z,101416.98
2018-07-03T11:08:30.693Z,101410.86
2018-07-03T11:09:36.095Z,101414.96
2018-07-03T11:10:41.501Z,101420.35
2018-07-03T11:11:46.906Z,101417.79
2018-07-03T11:12:52.307Z,101416.99
2018-07-03T11:13:57.780Z,101413.45
2018-07-03T11:15:03.131Z,101412.56
2018-07-03T11:16:08.536Z,101411.76
2018-07-03T11:17:13.940Z,101412.82
2018-07-03T11:18:19.346Z,101412.08
2018-07-03T11:19:25.750Z,101416.68
2018-07-03T11:20:31.155Z,101411.77
2018-07-03T11:21:36.561Z,101409.43
2018-07-03T11:22:41.967Z,101407.78
2018-07-03T11:23:47.391Z,101407.9
2018-07-03T11:24:52.798Z,101407.56
2018-07-03T11:25:58.215Z,101410.01
2018-07-03T11:27:03.621Z,101407.18
2018-07-03T11:28:09.025Z,101408.32
2018-07-03T11:29:14.437Z,101408.45
2018-07-03T11:30:19.934Z,101409.62
2018-07-03T11:31:25.379Z,101403.42
2018-07-03T11:32:30.784Z,101404.08
2018-07-03T11:33:36.229Z,101398.39
2018-07-03T11:34:41.603Z,101397.34
2018-07-03T11:35:47.018Z,101402.7
2018-07-03T11:36:53.413Z,101400.71
2018-07-03T11:37:58.818Z,101401.37
2018-07-03T11:39:04.226Z,101400.04
2018-07-03T11:40:09.638Z,101401.57
2018-07-03T11:41:15.039Z,101400.56
2018-07-03T11:42:20.450Z,101401.01
2018-07-03T11:43:25.849Z,101401.85
2018-07-03T11:44:31.266Z,101406
2018-07-03T11:45:36.675Z,101401.67
2018-07-03T11:46:42.104Z,101406.17
2018-07-03T11:47:47.480Z,101400.07
2018-07-03T11:48:52.884Z,101403.03
2018-07-03T11:49:58.301Z,101402.92
2018-07-03T11:51:03.703Z,101403.98
2018-07-03T11:52:09.108Z,101402.04
2018-07-03T11:53:14.515Z,101405.52
2018-07-03T11:54:19.917Z,101403.9
2018-07-03T11:55:25.329Z,101400.98
2018-07-03T11:56:30.734Z,101400.14
2018-07-03T11:57:36.140Z,101402.71
2018-07-03T11:58:41.547Z,101397.24
2018-07-03T11:59:46.959Z,101402.64
2018-07-03T12:00:52.363Z,101398.35
2018-07-03T12:01:57.771Z,101401.06
2018-07-03T12:03:03.173Z,101395.25
2018-07-03T12:04:08.570Z,101398.15
2018-07-03T12:05:13.985Z,101397.71
2018-07-03T12:06:19.393Z,101393.92
2018-07-03T12:07:24.797Z,101395.61
2018-07-03T12:08:30.211Z,101389
2018-07-03T12:09:35.617Z,101389.91
2018-07-03T12:10:42.027Z,101389.31
2018-07-03T12:11:47.434Z,101385.56
2018-07-03T12:12:52.837Z,101380.39
2018-07-03T12:13:59.234Z,101378.42
2018-07-03T12:15:04.663Z,101377.92
2018-07-03T12:16:10.069Z,101376.78
2018-07-03T12:17:15.474Z,101376.48
2018-07-03T12:18:20.878Z,101376.73
2018-07-03T12:19:27.322Z,101373.22
2018-07-03T12:20:32.686Z,101375.89
2018-07-03T12:21:38.089Z,101372.07
2018-07-03T12:22:43.492Z,101371.05
2018-07-03T12:23:48.898Z,101371.26
2018-07-03T12:24:54.304Z,101375.77
2018-07-03T12:25:59.729Z,101373.28
2018-07-03T12:27:05.134Z,101375.9
2018-07-03T12:28:10.536Z,101373.74
2018-07-03T12:29:15.976Z,101371.12
2018-07-03T12:30:21.345Z,101367.87